Time;durP1;ratioP1;P1;durP2;ratioP2;P2;SDS_P1;SDS_P2;PMS_P1;PMS_P2;Temp;Humidity;BMP_temperature;BMP_pressure;BME280_temperature;BME280_humidity;BME280_pressure;Samples;Min_cycle;Max_cycle;Signal;HPM_P1;HPM_P2
2020/12/24 00:01:42;;;;;;;20.10;17.95;;;;;;;;;;6258174;28;20620;-76
2020/12/24 00:04:43;;;;;;;21.63;18.73;;;;;;;;;;6261673;28;20388;-75
2020/12/24 00:07:45;;;;;;;21.52;19.23;;;;;;;;;;6262187;28;20052;-75
2020/12/24 00:10:46;;;;;;;19.25;17.10;;;;;;;;;;6261375;28;20149;-76
2020/12/24 00:13:47;;;;;;;21.52;19.02;;;;;;;;;;6263956;28;20216;-75
2020/12/24 00:16:48;;;;;;;19.13;17.08;;;;;;;;;;6260521;28;20789;-75
2020/12/24 00:19:49;;;;;;;19.45;17.00;;;;;;;;;;6257724;28;20055;-75
2020/12/24 00:22:51;;;;;;;19.42;17.35;;;;;;;;;;6257299;28;20047;-75
2020/12/24 00:25:52;;;;;;;19.73;17.65;;;;;;;;;;6255646;28;20098;-75
2020/12/24 00:28:53;;;;;;;19.10;17.10;;;;;;;;;;6254884;28;20051;-76
2020/12/24 00:31:54;;;;;;;18.63;16.63;;;;;;;;;;6259956;28;20048;-75
2020/12/24 00:34:55;;;;;;;19.45;17.38;;;;;;;;;;6261852;28;20638;-75
2020/12/24 00:37:57;;;;;;;19.92;17.52;;;;;;;;;;6260303;28;20176;-76
2020/12/24 00:40:58;;;;;;;17.85;16.05;;;;;;;;;;6260423;28;20543;-75
2020/12/24 00:43:59;;;;;;;19.30;17.30;;;;;;;;;;6251701;28;20053;-75
2020/12/24 00:47:01;;;;;;;19.02;17.02;;;;;;;;;;6249815;28;20077;-77
2020/12/24 00:50:02;;;;;;;18.73;16.75;;;;;;;;;;6251794;28;21499;-76
2020/12/24 00:53:04;;;;;;;18.17;15.80;;;;;;;;;;6260115;28;20044;-76
2020/12/24 00:56:06;;;;;;;18.77;16.77;;;;;;;;;;6256483;28;20163;-75
2020/12/24 00:59:08;;;;;;;18.27;16.35;;;;;;;;;;6262356;28;20072;-75
2020/12/24 01:02:09;;;;;;;19.38;17.05;;;;;;;;;;6264234;28;20098;-76
2020/12/24 01:05:10;;;;;;;18.88;16.85;;;;;;;;;;6272658;28;20044;-75
2020/12/24 01:08:12;;;;;;;17.90;16.05;;;;;;;;;;6263964;28;20051;-77
2020/12/24 01:11:13;;;;;;;19.38;17.25;;;;;;;;;;6265010;28;20045;-74
2020/12/24 01:14:14;;;;;;;20.33;16.58;;;;;;;;;;6270563;28;20049;-75
2020/12/24 01:17:15;;;;;;;18.85;16.85;;;;;;;;;;6259605;28;20065;-75
2020/12/24 01:20:16;;;;;;;19.20;17.27;;;;;;;;;;6266854;28;20131;-75
2020/12/24 01:23:19;;;;;;;20.00;17.90;;;;;;;;;;6248270;28;20059;-74
2020/12/24 01:26:20;;;;;;;18.95;17.00;;;;;;;;;;6248901;28;20094;-74
2020/12/24 01:29:21;;;;;;;20.77;18.58;;;;;;;;;;6260964;28;20041;-75
2020/12/24 01:32:22;;;;;;;20.33;18.15;;;;;;;;;;6257755;28;20471;-75
2020/12/24 01:35:23;;;;;;;21.55;18.73;;;;;;;;;;6267645;28;20055;-75
2020/12/24 01:38:25;;;;;;;22.45;19.55;;;;;;;;;;6255300;28;20044;-76
2020/12/24 01:41:26;;;;;;;22.55;19.75;;;;;;;;;;6251033;28;20041;-76
2020/12/24 01:44:27;;;;;;;22.02;19.30;;;;;;;;;;6263850;28;20048;-74
2020/12/24 01:47:28;;;;;;;23.73;20.83;;;;;;;;;;6265984;28;20184;-76
2020/12/24 01:50:29;;;;;;;24.52;21.92;;;;;;;;;;6263906;28;20059;-75
2020/12/24 01:53:32;;;;;;;22.13;19.75;;;;;;;;;;6253640;28;20048;-75
2020/12/24 01:56:33;;;;;;;22.13;18.65;;;;;;;;;;6247812;28;20045;-75
2020/12/24 01:59:34;;;;;;;22.08;19.88;;;;;;;;;;6248331;28;20049;-75
2020/12/24 02:02:35;;;;;;;20.48;18.38;;;;;;;;;;6264397;28;20060;-76
2020/12/24 02:05:36;;;;;;;20.42;18.33;;;;;;;;;;6267963;28;20059;-75
2020/12/24 02:08:38;;;;;;;21.67;19.38;;;;;;;;;;6263417;28;20044;-75
2020/12/24 02:11:39;;;;;;;21.25;19.05;;;;;;;;;;6257790;28;20049;-75
2020/12/24 02:14:40;;;;;;;20.90;18.75;;;;;;;;;;6258572;28;20057;-75
2020/12/24 02:17:41;;;;;;;20.98;18.77;;;;;;;;;;6257753;28;20047;-75
2020/12/24 02:20:43;;;;;;;20.33;18.33;;;;;;;;;;6263839;28;20053;-75
2020/12/24 02:23:45;;;;;;;19.52;17.60;;;;;;;;;;6266689;28;20057;-75
2020/12/24 02:26:46;;;;;;;19.35;17.45;;;;;;;;;;6262126;28;20045;-75
2020/12/24 02:29:47;;;;;;;17.60;15.80;;;;;;;;;;6272682;28;20131;-75
2020/12/24 02:32:48;;;;;;;17.00;15.30;;;;;;;;;;6258317;28;20524;-75
2020/12/24 02:35:50;;;;;;;16.95;15.32;;;;;;;;;;6267588;28;20053;-75
2020/12/24 02:38:51;;;;;;;16.85;15.20;;;;;;;;;;6271172;28;20143;-76
2020/12/24 02:41:52;;;;;;;16.90;15.30;;;;;;;;;;6265816;28;20604;-75
2020/12/24 02:44:53;;;;;;;17.67;15.88;;;;;;;;;;6254692;28;20518;-76
2020/12/24 02:47:54;;;;;;;16.23;14.68;;;;;;;;;;6252752;28;20163;-75
2020/12/24 02:50:56;;;;;;;15.73;14.23;;;;;;;;;;6265591;28;20045;-76
2020/12/24 02:53:57;;;;;;;15.45;14.00;;;;;;;;;;6268783;28;20053;-75
2020/12/24 02:56:59;;;;;;;16.48;14.95;;;;;;;;;;6251819;28;20551;-75
2020/12/24 03:00:02;;;;;;;16.13;14.63;;;;;;;;;;6261519;28;20045;-75
2020/12/24 03:03:03;;;;;;;17.35;15.73;;;;;;;;;;6271549;28;20044;-75
2020/12/24 03:06:05;;;;;;;16.27;14.68;;;;;;;;;;6255543;28;20057;-75
2020/12/24 03:09:06;;;;;;;16.98;15.38;;;;;;;;;;6254746;28;20500;-75
2020/12/24 03:12:10;;;;;;;16.42;14.82;;;;;;;;;;6253621;28;20143;-76
2020/12/24 03:15:12;;;;;;;;;;;;;;;;;;6255572;28;20049;-75
2020/12/24 03:18:14;;;;;;;14.75;13.35;;;;;;;;;;6253011;28;20036;-75
2020/12/24 03:21:16;;;;;;;17.00;15.30;;;;;;;;;;6251511;28;20106;-75
2020/12/24 03:24:17;;;;;;;16.65;15.15;;;;;;;;;;6253697;28;20136;-75
2020/12/24 03:27:18;;;;;;;16.20;14.60;;;;;;;;;;6257767;28;20045;-75
2020/12/24 03:30:19;;;;;;;18.30;16.50;;;;;;;;;;6251199;28;20532;-75
2020/12/24 03:33:20;;;;;;;18.98;17.08;;;;;;;;;;6266423;28;20049;-75
2020/12/24 03:36:23;;;;;;;18.83;16.90;;;;;;;;;;6266646;28;20049;-74
2020/12/24 03:39:24;;;;;;;19.67;17.48;;;;;;;;;;6258542;28;20046;-74
2020/12/24 03:42:25;;;;;;;20.35;18.35;;;;;;;;;;6256924;28;20052;-75
2020/12/24 03:45:27;;;;;;;21.88;19.58;;;;;;;;;;6269740;28;20144;-75
2020/12/24 03:48:28;;;;;;;21.33;19.13;;;;;;;;;;6258486;28;20037;-75
2020/12/24 03:51:30;;;;;;;21.88;19.48;;;;;;;;;;6273665;28;20193;-75
2020/12/24 03:54:31;;;;;;;23.77;21.10;;;;;;;;;;6264422;28;20094;-75
2020/12/24 03:57:32;;;;;;;23.27;20.77;;;;;;;;;;6255841;28;20047;-76
2020/12/24 04:00:33;;;;;;;24.42;21.15;;;;;;;;;;6269334;28;20049;-76
2020/12/24 04:03:34;;;;;;;23.55;20.88;;;;;;;;;;6265604;28;20560;-76
2020/12/24 04:06:36;;;;;;;24.08;21.38;;;;;;;;;;6264998;28;20045;-75
2020/12/24 04:09:37;;;;;;;25.65;21.90;;;;;;;;;;6247398;28;20041;-75
2020/12/24 04:12:38;;;;;;;30.67;23.70;;;;;;;;;;6250665;28;20074;-75
2020/12/24 04:15:39;;;;;;;30.50;24.13;;;;;;;;;;6264896;28;20539;-75
2020/12/24 04:18:40;;;;;;;29.27;23.70;;;;;;;;;;6265429;28;20059;-75
2020/12/24 04:21:42;;;;;;;28.80;23.35;;;;;;;;;;6255326;28;20037;-76
2020/12/24 04:24:43;;;;;;;30.67;24.00;;;;;;;;;;6257269;28;20086;-75
2020/12/24 04:27:44;;;;;;;29.17;23.67;;;;;;;;;;6263469;28;20103;-76
2020/12/24 04:30:45;;;;;;;27.27;22.88;;;;;;;;;;6262570;28;20442;-75
2020/12/24 04:33:46;;;;;;;25.90;21.73;;;;;;;;;;6259298;28;20057;-74
2020/12/24 04:36:50;;;;;;;23.30;20.45;;;;;;;;;;6255345;28;20041;-75
2020/12/24 04:39:51;;;;;;;22.52;19.73;;;;;;;;;;6251056;28;20799;-75
2020/12/24 04:42:53;;;;;;;19.65;17.75;;;;;;;;;;6249893;28;20082;-76
2020/12/24 04:45:55;;;;;;;20.52;18.33;;;;;;;;;;6261431;28;20605;-76
2020/12/24 04:48:59;;;;;;;19.88;17.98;;;;;;;;;;6261431;28;20055;-74
2020/12/24 04:52:01;;;;;;;20.52;18.52;;;;;;;;;;6263555;28;20148;-76
2020/12/24 04:55:03;;;;;;;20.23;18.23;;;;;;;;;;6255790;28;20103;-76
2020/12/24 04:58:05;;;;;;;19.95;18.05;;;;;;;;;;6252356;28;20718;-76
2020/12/24 05:01:06;;;;;;;21.88;19.52;;;;;;;;;;6254133;28;20136;-75
2020/12/24 05:04:07;;;;;;;21.55;19.45;;;;;;;;;;6248142;28;20229;-75
2020/12/24 05:07:09;;;;;;;20.35;18.30;;;;;;;;;;6256054;28;20045;-75
2020/12/24 05:10:13;;;;;;;18.48;16.67;;;;;;;;;;6262238;28;20055;-76
2020/12/24 05:13:15;;;;;;;18.55;16.77;;;;;;;;;;6264422;28;20048;-75
2020/12/24 05:16:16;;;;;;;17.15;15.55;;;;;;;;;;6245559;28;20049;-76
2020/12/24 05:19:17;;;;;;;17.45;15.82;;;;;;;;;;6264122;28;20059;-75
2020/12/24 05:22:23;;;;;;;17.27;15.68;;;;;;;;;;6248728;28;20407;-75
2020/12/24 05:25:26;;;;;;;16.98;15.35;;;;;;;;;;6249602;28;20048;-75
2020/12/24 05:28:28;;;;;;;17.75;16.08;;;;;;;;;;6248714;28;20063;-75
2020/12/24 05:31:33;;;;;;;17.92;16.33;;;;;;;;;;6251879;28;20053;-75
2020/12/24 05:34:34;;;;;;;18.05;16.35;;;;;;;;;;6246516;28;20084;-75
2020/12/24 05:37:36;;;;;;;18.35;16.65;;;;;;;;;;6251628;28;20052;-75
2020/12/24 05:40:38;;;;;;;18.42;16.70;;;;;;;;;;6257597;28;20043;-75
2020/12/24 05:43:54;;;;;;;18.10;16.40;;;;;;;;;;6264001;28;20053;-75
2020/12/24 05:46:55;;;;;;;17.35;15.85;;;;;;;;;;6266295;28;20464;-75
2020/12/24 05:49:56;;;;;;;17.65;15.95;;;;;;;;;;6265539;28;20098;-75
2020/12/24 05:53:09;;;;;;;17.13;15.52;;;;;;;;;;6268630;28;20051;-75
2020/12/24 05:56:19;;;;;;;16.88;15.18;;;;;;;;;;6254756;28;20528;-75
2020/12/24 05:59:22;;;;;;;17.10;15.50;;;;;;;;;;6258375;28;20531;-74
2020/12/24 06:02:24;;;;;;;16.38;14.88;;;;;;;;;;6261336;28;20136;-76
2020/12/24 06:05:31;;;;;;;16.45;14.85;;;;;;;;;;6265157;28;20131;-75
2020/12/24 06:08:34;;;;;;;16.02;14.63;;;;;;;;;;6269241;28;20690;-75
2020/12/24 06:11:47;;;;;;;15.77;14.38;;;;;;;;;;6260576;28;20437;-75
2020/12/24 06:14:49;;;;;;;17.13;15.52;;;;;;;;;;6252581;28;20056;-75
2020/12/24 06:17:50;;;;;;;16.02;14.50;;;;;;;;;;6257178;28;20128;-75
2020/12/24 06:20:52;;;;;;;17.17;15.57;;;;;;;;;;6253673;28;20099;-75
2020/12/24 06:23:58;;;;;;;18.42;16.73;;;;;;;;;;6261046;28;20160;-75
2020/12/24 06:27:03;;;;;;;16.00;14.50;;;;;;;;;;6266448;28;20820;-75
2020/12/24 06:30:05;;;;;;;17.10;15.50;;;;;;;;;;6267948;28;20054;-76
2020/12/24 06:33:10;;;;;;;16.83;15.23;;;;;;;;;;6264225;28;20118;-75
2020/12/24 06:36:31;;;;;;;15.20;13.73;;;;;;;;;;6269575;28;20049;-75
2020/12/24 06:39:44;;;;;;;13.60;12.32;;;;;;;;;;6250872;28;20049;-75
2020/12/24 06:42:45;;;;;;;13.90;12.70;;;;;;;;;;6253603;28;20052;-76
2020/12/24 06:45:46;;;;;;;11.85;10.75;;;;;;;;;;6255816;28;20139;-76
2020/12/24 06:49:01;;;;;;;11.48;10.48;;;;;;;;;;6262855;28;20049;-75
2020/12/24 06:52:02;;;;;;;12.73;11.32;;;;;;;;;;6268169;28;20056;-75
2020/12/24 06:55:13;;;;;;;12.15;11.05;;;;;;;;;;6257034;28;20144;-75
2020/12/24 06:58:37;;;;;;;12.40;11.30;;;;;;;;;;6256001;28;20102;-75
2020/12/24 07:01:38;;;;;;;12.57;11.33;;;;;;;;;;6266052;28;20044;-75
2020/12/24 07:04:40;;;;;;;12.10;10.93;;;;;;;;;;6260936;28;20532;-77
2020/12/24 07:07:43;;;;;;;11.77;10.68;;;;;;;;;;6261073;28;20243;-76
2020/12/24 07:10:46;;;;;;;9.32;8.43;;;;;;;;;;6258626;28;20049;-75
2020/12/24 07:13:51;;;;;;;9.90;9.00;;;;;;;;;;6265084;28;20073;-76
2020/12/24 07:16:53;;;;;;;9.55;8.65;;;;;;;;;;6264305;28;20049;-75
2020/12/24 07:19:56;;;;;;;9.68;8.77;;;;;;;;;;6267111;28;20053;-75
2020/12/24 07:22:57;;;;;;;11.40;10.38;;;;;;;;;;6256576;28;20055;-75
2020/12/24 07:26:00;;;;;;;10.73;9.80;;;;;;;;;;6263588;28;20059;-75
2020/12/24 07:29:01;;;;;;;12.27;11.18;;;;;;;;;;6265944;28;20045;-75
2020/12/24 07:32:05;;;;;;;13.00;11.80;;;;;;;;;;6257888;28;20118;-75
2020/12/24 07:35:06;;;;;;;15.13;13.63;;;;;;;;;;6261662;28;20692;-75
2020/12/24 07:38:09;;;;;;;20.00;17.90;;;;;;;;;;6260673;28;20045;-75
2020/12/24 07:41:16;;;;;;;21.10;19.00;;;;;;;;;;6258680;28;20129;-76
2020/12/24 07:44:18;;;;;;;23.88;21.38;;;;;;;;;;6263554;28;20033;-75
2020/12/24 07:47:19;;;;;;;29.77;26.58;;;;;;;;;;6252708;28;20037;-75
2020/12/24 07:50:29;;;;;;;28.48;25.48;;;;;;;;;;6263271;28;20504;-76
2020/12/24 07:53:30;;;;;;;25.15;22.55;;;;;;;;;;6252625;28;20094;-76
2020/12/24 07:56:33;;;;;;;22.73;20.42;;;;;;;;;;6258004;28;20134;-75
2020/12/24 07:59:34;;;;;;;23.17;20.67;;;;;;;;;;6257717;28;20417;-77
2020/12/24 08:02:36;;;;;;;21.65;18.60;;;;;;;;;;6258569;28;20485;-77
2020/12/24 08:05:37;;;;;;;20.60;18.60;;;;;;;;;;6256302;28;20089;-76
2020/12/24 08:08:38;;;;;;;19.67;17.58;;;;;;;;;;6259342;28;20049;-75
2020/12/24 08:11:40;;;;;;;18.88;16.98;;;;;;;;;;6259462;28;20041;-75
2020/12/24 08:14:41;;;;;;;16.63;14.82;;;;;;;;;;6259633;28;20523;-77
2020/12/24 08:17:46;;;;;;;15.45;13.95;;;;;;;;;;6248049;28;20052;-75
2020/12/24 08:20:50;;;;;;;15.80;14.30;;;;;;;;;;6259305;28;20045;-75
2020/12/24 08:23:52;;;;;;;17.38;15.65;;;;;;;;;;6248433;28;20053;-75
2020/12/24 08:26:57;;;;;;;18.33;16.42;;;;;;;;;;6250093;28;20064;-76
2020/12/24 08:29:59;;;;;;;19.63;17.63;;;;;;;;;;6251390;28;20055;-75
2020/12/24 08:33:03;;;;;;;19.83;17.73;;;;;;;;;;6260471;28;20045;-75
2020/12/24 08:36:23;;;;;;;20.88;18.77;;;;;;;;;;6257123;28;20045;-76
2020/12/24 08:39:24;;;;;;;18.38;16.55;;;;;;;;;;6249367;28;20176;-76
2020/12/24 08:42:28;;;;;;;17.98;16.27;;;;;;;;;;6258423;28;20041;-76
2020/12/24 08:45:29;;;;;;;;;;;;;;;;;;6253416;28;20063;-76
2020/12/24 08:48:31;;;;;;;19.75;17.67;;;;;;;;;;6247762;28;20364;-75
2020/12/24 08:51:32;;;;;;;20.15;18.15;;;;;;;;;;6252424;28;20044;-75
2020/12/24 08:54:33;;;;;;;20.45;18.45;;;;;;;;;;6258079;28;20520;-75
2020/12/24 08:57:36;;;;;;;20.70;18.58;;;;;;;;;;6260391;28;20135;-75
2020/12/24 09:00:37;;;;;;;20.88;18.67;;;;;;;;;;6253708;28;20053;-75
2020/12/24 09:03:38;;;;;;;19.92;17.83;;;;;;;;;;6254934;28;20045;-75
2020/12/24 09:06:39;;;;;;;18.63;16.75;;;;;;;;;;6251045;28;20380;-76
2020/12/24 09:09:40;;;;;;;16.88;15.18;;;;;;;;;;6245182;28;20779;-75
2020/12/24 09:12:43;;;;;;;16.73;15.02;;;;;;;;;;6255890;28;20036;-74
2020/12/24 09:15:45;;;;;;;17.17;15.40;;;;;;;;;;6254629;28;20549;-74
2020/12/24 09:18:45;;;;;;;15.32;13.82;;;;;;;;;;6258878;28;20049;-74
2020/12/24 09:21:51;;;;;;;15.13;13.65;;;;;;;;;;6254434;28;20510;-74
2020/12/24 09:24:52;;;;;;;15.13;13.73;;;;;;;;;;6252970;28;20117;-76
2020/12/24 09:27:54;;;;;;;14.77;13.38;;;;;;;;;;6254930;28;20057;-77
2020/12/24 09:30:58;;;;;;;15.57;14.07;;;;;;;;;;6257164;28;20124;-75
2020/12/24 09:33:59;;;;;;;14.50;13.10;;;;;;;;;;6255461;28;20037;-76
2020/12/24 09:37:00;;;;;;;13.23;11.93;;;;;;;;;;6252688;28;20049;-76
2020/12/24 09:40:01;;;;;;;12.43;11.32;;;;;;;;;;6253019;28;20052;-75
2020/12/24 09:43:03;;;;;;;10.00;9.10;;;;;;;;;;6255363;28;20156;-75
2020/12/24 09:46:04;;;;;;;12.05;10.90;;;;;;;;;;6253803;28;20128;-75
2020/12/24 09:49:05;;;;;;;12.52;11.23;;;;;;;;;;6250118;28;20086;-77
2020/12/24 09:52:06;;;;;;;11.50;10.48;;;;;;;;;;6253135;28;20051;-75
2020/12/24 09:55:08;;;;;;;11.23;10.23;;;;;;;;;;6259091;28;20110;-78
2020/12/24 09:58:10;;;;;;;12.45;11.15;;;;;;;;;;6251076;28;20044;-75
2020/12/24 10:01:11;;;;;;;10.32;9.32;;;;;;;;;;6250964;28;20135;-75
2020/12/24 10:04:12;;;;;;;10.70;9.60;;;;;;;;;;6248555;28;20508;-76
2020/12/24 10:07:13;;;;;;;10.25;9.35;;;;;;;;;;6251614;28;20046;-76
2020/12/24 10:10:14;;;;;;;11.60;10.50;;;;;;;;;;6257436;28;20109;-78
2020/12/24 10:13:16;;;;;;;10.32;9.18;;;;;;;;;;6253493;28;20097;-75
2020/12/24 10:16:17;;;;;;;10.20;9.07;;;;;;;;;;6253605;28;20480;-77
2020/12/24 10:19:18;;;;;;;10.70;9.63;;;;;;;;;;6252659;28;20182;-75
2020/12/24 10:22:19;;;;;;;10.50;9.50;;;;;;;;;;6258476;28;20044;-75
2020/12/24 10:25:20;;;;;;;12.45;10.98;;;;;;;;;;6259628;28;20164;-76
2020/12/24 10:28:22;;;;;;;15.15;13.65;;;;;;;;;;6260247;28;20045;-77
2020/12/24 10:31:23;;;;;;;18.73;16.20;;;;;;;;;;6258853;28;20147;-76
2020/12/24 10:34:24;;;;;;;19.10;17.20;;;;;;;;;;6252865;28;20076;-77
2020/12/24 10:37:25;;;;;;;14.07;12.57;;;;;;;;;;6260239;28;20616;-75
2020/12/24 10:40:26;;;;;;;12.65;11.45;;;;;;;;;;6263505;28;20045;-76
2020/12/24 10:43:28;;;;;;;12.40;11.23;;;;;;;;;;6266547;28;20056;-75
2020/12/24 10:46:29;;;;;;;12.85;11.55;;;;;;;;;;6269759;28;20095;-75
2020/12/24 10:49:30;;;;;;;12.77;11.52;;;;;;;;;;6274298;28;20131;-75
2020/12/24 10:52:31;;;;;;;12.57;11.32;;;;;;;;;;6266577;28;20448;-77
2020/12/24 10:55:32;;;;;;;12.57;11.27;;;;;;;;;;6262327;28;20492;-76
2020/12/24 10:58:36;;;;;;;12.13;10.93;;;;;;;;;;6255587;28;20125;-75
2020/12/24 11:01:37;;;;;;;12.45;11.25;;;;;;;;;;6259775;28;20492;-75
2020/12/24 11:04:38;;;;;;;11.10;9.90;;;;;;;;;;6258779;28;20051;-75
2020/12/24 11:07:39;;;;;;;9.73;8.73;;;;;;;;;;6258495;28;20164;-74
2020/12/24 11:10:40;;;;;;;9.50;8.60;;;;;;;;;;6252697;28;20045;-75
2020/12/24 11:13:43;;;;;;;9.57;8.68;;;;;;;;;;6254438;28;20194;-74
2020/12/24 11:16:44;;;;;;;8.80;8.00;;;;;;;;;;6256366;28;20053;-74
2020/12/24 11:19:45;;;;;;;5.30;4.80;;;;;;;;;;6258325;28;20041;-75
2020/12/24 11:22:46;;;;;;;7.57;6.72;;;;;;;;;;6250407;28;20094;-75
2020/12/24 11:25:47;;;;;;;11.27;10.18;;;;;;;;;;6237320;28;20061;-77
2020/12/24 11:28:49;;;;;;;13.82;12.43;;;;;;;;;;6251558;28;20048;-77
2020/12/24 11:31:50;;;;;;;16.52;14.82;;;;;;;;;;6253851;28;20049;-75
2020/12/24 11:34:51;;;;;;;16.08;14.48;;;;;;;;;;6239987;28;20069;-75
2020/12/24 11:37:52;;;;;;;17.02;15.23;;;;;;;;;;6261310;28;20068;-75
2020/12/24 11:40:53;;;;;;;18.30;16.23;;;;;;;;;;6249930;28;20127;-75
2020/12/24 11:43:56;;;;;;;22.27;17.95;;;;;;;;;;6258368;28;20458;-75
2020/12/24 11:46:59;;;;;;;19.15;17.15;;;;;;;;;;6256914;28;20046;-76
2020/12/24 11:50:00;;;;;;;19.48;17.30;;;;;;;;;;6264791;28;20044;-74
2020/12/24 11:53:01;;;;;;;19.05;17.15;;;;;;;;;;6265652;28;20049;-75
2020/12/24 11:56:02;;;;;;;18.23;16.35;;;;;;;;;;6257645;28;20057;-75
2020/12/24 11:59:05;;;;;;;20.08;17.50;;;;;;;;;;6255266;28;20056;-74
2020/12/24 12:02:06;;;;;;;21.17;18.65;;;;;;;;;;6256841;28;20047;-75
2020/12/24 12:05:07;;;;;;;20.05;17.90;;;;;;;;;;6260305;28;20049;-75
2020/12/24 12:08:09;;;;;;;21.30;19.02;;;;;;;;;;6252368;28;20054;-74
2020/12/24 12:11:10;;;;;;;20.92;18.73;;;;;;;;;;6255333;28;20049;-75
2020/12/24 12:14:12;;;;;;;22.67;19.05;;;;;;;;;;6259347;28;20136;-75
2020/12/24 12:17:14;;;;;;;22.75;18.88;;;;;;;;;;6250763;28;20045;-75
2020/12/24 12:20:15;;;;;;;22.10;19.77;;;;;;;;;;6251166;28;20098;-74
2020/12/24 12:23:16;;;;;;;22.17;19.92;;;;;;;;;;6251708;28;20061;-75
2020/12/24 12:26:17;;;;;;;22.40;19.52;;;;;;;;;;6259974;28;20056;-74
2020/12/24 12:29:19;;;;;;;22.90;20.23;;;;;;;;;;6258410;28;20037;-74
2020/12/24 12:32:20;;;;;;;21.48;19.20;;;;;;;;;;6258243;28;20160;-74
2020/12/24 12:35:21;;;;;;;21.30;18.98;;;;;;;;;;6253685;28;20168;-74
2020/12/24 12:38:22;;;;;;;21.67;19.38;;;;;;;;;;6250168;28;20033;-74
2020/12/24 12:41:24;;;;;;;21.20;18.90;;;;;;;;;;6247597;28;20057;-74
2020/12/24 12:44:26;;;;;;;22.55;19.48;;;;;;;;;;6247869;28;20041;-75
2020/12/24 12:47:27;;;;;;;20.30;17.92;;;;;;;;;;6250279;28;20049;-74
2020/12/24 12:50:28;;;;;;;21.08;18.88;;;;;;;;;;6245796;28;20490;-75
2020/12/24 12:53:29;;;;;;;22.63;20.20;;;;;;;;;;6259310;28;20050;-74
2020/12/24 12:56:30;;;;;;;21.60;19.20;;;;;;;;;;6256383;28;20214;-74
2020/12/24 12:59:32;;;;;;;21.58;19.00;;;;;;;;;;6256445;28;20063;-74
2020/12/24 13:02:33;;;;;;;21.65;19.35;;;;;;;;;;6246578;28;20122;-74
2020/12/24 13:05:35;;;;;;;21.15;18.83;;;;;;;;;;6253442;28;20143;-74
2020/12/24 13:08:36;;;;;;;21.58;19.42;;;;;;;;;;6245858;28;20054;-75
2020/12/24 13:11:37;;;;;;;22.63;20.23;;;;;;;;;;6259885;28;20055;-74
2020/12/24 13:14:39;;;;;;;20.80;18.58;;;;;;;;;;6260249;28;20554;-75
2020/12/24 13:17:40;;;;;;;21.65;19.35;;;;;;;;;;6250719;28;20575;-75
2020/12/24 13:20:41;;;;;;;22.10;18.77;;;;;;;;;;6253818;28;20107;-75
2020/12/24 13:23:42;;;;;;;20.75;18.48;;;;;;;;;;6255408;28;20098;-74
2020/12/24 13:26:43;;;;;;;18.92;16.23;;;;;;;;;;6250032;28;20606;-75
2020/12/24 13:29:44;;;;;;;17.48;14.80;;;;;;;;;;6257367;28;20567;-74
2020/12/24 13:32:45;;;;;;;15.23;13.70;;;;;;;;;;6262224;28;20447;-75
2020/12/24 13:35:46;;;;;;;15.07;11.80;;;;;;;;;;6264407;28;20057;-74
2020/12/24 13:38:47;;;;;;;13.25;11.57;;;;;;;;;;6254249;28;20045;-75
2020/12/24 13:41:49;;;;;;;13.35;11.77;;;;;;;;;;6256519;28;20613;-74
2020/12/24 13:44:51;;;;;;;12.48;11.18;;;;;;;;;;6259404;28;20049;-75
2020/12/24 13:47:52;;;;;;;13.45;11.80;;;;;;;;;;6256543;28;20153;-74
2020/12/24 13:50:53;;;;;;;12.43;11.13;;;;;;;;;;6253487;28;20481;-74
2020/12/24 13:53:54;;;;;;;15.18;11.90;;;;;;;;;;6250007;28;20045;-74
2020/12/24 13:56:55;;;;;;;13.05;11.48;;;;;;;;;;6248940;28;20047;-74
2020/12/24 13:59:58;;;;;;;13.43;11.13;;;;;;;;;;6247172;28;20780;-74
2020/12/24 14:02:59;;;;;;;12.07;10.75;;;;;;;;;;6257450;28;20049;-74
2020/12/24 14:06:00;;;;;;;17.42;13.60;;;;;;;;;;6256508;28;20999;-74
2020/12/24 14:09:01;;;;;;;16.20;14.25;;;;;;;;;;6246087;28;20053;-74
2020/12/24 14:12:02;;;;;;;15.73;14.05;;;;;;;;;;6250273;28;20041;-73
2020/12/24 14:15:04;;;;;;;17.02;15.30;;;;;;;;;;6245750;28;20052;-74
2020/12/24 14:18:05;;;;;;;16.73;14.98;;;;;;;;;;6254210;28;20383;-74
2020/12/24 14:21:06;;;;;;;16.15;14.45;;;;;;;;;;6262507;28;20713;-74
2020/12/24 14:24:07;;;;;;;15.50;13.90;;;;;;;;;;6262042;28;20048;-74
2020/12/24 14:27:08;;;;;;;16.05;14.38;;;;;;;;;;6253492;28;20420;-75
2020/12/24 14:30:10;;;;;;;16.70;14.95;;;;;;;;;;6255725;28;20480;-74
2020/12/24 14:33:11;;;;;;;18.73;15.20;;;;;;;;;;6252725;28;20049;-74
2020/12/24 14:36:14;;;;;;;16.02;14.32;;;;;;;;;;6256456;28;20424;-74
2020/12/24 14:39:15;;;;;;;15.32;13.73;;;;;;;;;;6256405;28;20074;-75
2020/12/24 14:42:17;;;;;;;18.08;14.07;;;;;;;;;;6252283;28;20053;-74
2020/12/24 14:45:19;;;;;;;15.73;13.98;;;;;;;;;;6252286;28;20052;-73
2020/12/24 14:48:20;;;;;;;16.20;14.50;;;;;;;;;;6258674;28;20045;-74
2020/12/24 14:51:21;;;;;;;16.77;14.13;;;;;;;;;;6258132;28;20079;-74
2020/12/24 14:54:22;;;;;;;17.60;15.73;;;;;;;;;;6254273;28;20136;-74
2020/12/24 14:57:23;;;;;;;18.23;15.85;;;;;;;;;;6263547;28;20040;-74
2020/12/24 15:00:25;;;;;;;19.88;16.38;;;;;;;;;;6264707;28;20167;-74
2020/12/24 15:03:27;;;;;;;18.83;16.80;;;;;;;;;;6267770;28;20060;-76
2020/12/24 15:06:28;;;;;;;18.45;16.50;;;;;;;;;;6246241;28;20452;-74
2020/12/24 15:09:29;;;;;;;18.10;16.13;;;;;;;;;;6275606;28;20041;-74
2020/12/24 15:12:30;;;;;;;18.02;15.38;;;;;;;;;;6272452;28;20060;-74
2020/12/24 15:15:32;;;;;;;18.80;15.73;;;;;;;;;;6259104;28;20144;-74
2020/12/24 15:18:33;;;;;;;19.42;16.95;;;;;;;;;;6247574;28;20048;-74
2020/12/24 15:21:34;;;;;;;19.60;16.65;;;;;;;;;;6257306;28;20499;-74
2020/12/24 15:24:35;;;;;;;22.60;18.10;;;;;;;;;;6254648;28;20063;-74
2020/12/24 15:27:36;;;;;;;22.55;18.85;;;;;;;;;;6253103;28;20052;-75
2020/12/24 15:30:38;;;;;;;25.50;20.73;;;;;;;;;;6251385;28;20061;-74
2020/12/24 15:33:39;;;;;;;26.10;20.10;;;;;;;;;;6253594;28;20053;-73
2020/12/24 15:36:40;;;;;;;24.80;19.63;;;;;;;;;;6252842;28;20072;-75
2020/12/24 15:39:41;;;;;;;26.75;20.17;;;;;;;;;;6252312;28;20207;-74
2020/12/24 15:42:42;;;;;;;28.52;21.08;;;;;;;;;;6255294;28;20390;-75
2020/12/24 15:45:44;;;;;;;23.88;21.15;;;;;;;;;;6256983;28;20080;-74
2020/12/24 15:48:45;;;;;;;26.92;22.27;;;;;;;;;;6252669;28;20053;-74
2020/12/24 15:51:46;;;;;;;24.77;20.40;;;;;;;;;;6259410;28;20052;-74
2020/12/24 15:54:47;;;;;;;24.40;21.33;;;;;;;;;;6251766;28;20076;-73
2020/12/24 15:57:49;;;;;;;24.15;20.95;;;;;;;;;;6261443;28;20791;-74
2020/12/24 16:00:51;;;;;;;24.52;20.42;;;;;;;;;;6259941;28;20059;-74
2020/12/24 16:03:52;;;;;;;26.88;21.35;;;;;;;;;;6252366;28;20107;-73
2020/12/24 16:06:53;;;;;;;25.92;21.65;;;;;;;;;;6245202;28;20077;-73
2020/12/24 16:09:54;;;;;;;26.60;21.25;;;;;;;;;;6262452;28;20048;-74
2020/12/24 16:12:55;;;;;;;26.63;21.33;;;;;;;;;;6257682;28;20044;-73
2020/12/24 16:15:57;;;;;;;26.08;20.13;;;;;;;;;;6256898;28;20128;-73
2020/12/24 16:18:58;;;;;;;24.17;20.45;;;;;;;;;;6245977;28;20144;-75
2020/12/24 16:21:59;;;;;;;25.98;20.35;;;;;;;;;;6250483;28;20041;-75
2020/12/24 16:25:00;;;;;;;22.10;18.63;;;;;;;;;;6252808;28;20714;-74
2020/12/24 16:28:01;;;;;;;22.33;18.85;;;;;;;;;;6260549;28;20049;-74
2020/12/24 16:31:03;;;;;;;19.80;17.02;;;;;;;;;;6258502;28;20049;-74
2020/12/24 16:34:05;;;;;;;17.42;14.93;;;;;;;;;;6265278;28;20041;-74
2020/12/24 16:37:06;;;;;;;16.35;13.57;;;;;;;;;;6270898;28;20539;-74
2020/12/24 16:40:07;;;;;;;14.90;13.30;;;;;;;;;;6249781;28;20091;-75
2020/12/24 16:43:08;;;;;;;16.23;14.48;;;;;;;;;;6255451;28;20056;-74
2020/12/24 16:46:10;;;;;;;16.98;13.48;;;;;;;;;;6258527;28;20055;-74
2020/12/24 16:49:11;;;;;;;15.60;13.13;;;;;;;;;;6258634;28;20152;-73
2020/12/24 16:52:12;;;;;;;15.20;13.48;;;;;;;;;;6259523;28;20043;-74
2020/12/24 16:55:13;;;;;;;16.67;12.88;;;;;;;;;;6254148;28;20437;-74
2020/12/24 16:58:14;;;;;;;15.68;13.98;;;;;;;;;;6256918;28;20047;-74
2020/12/24 17:01:16;;;;;;;15.15;13.63;;;;;;;;;;6254474;28;20049;-74
2020/12/24 17:04:17;;;;;;;16.67;12.82;;;;;;;;;;6259709;28;20049;-74
2020/12/24 17:07:19;;;;;;;15.07;12.63;;;;;;;;;;6251536;28;20042;-74
2020/12/24 17:10:20;;;;;;;15.20;12.50;;;;;;;;;;6248039;28;20072;-75
2020/12/24 17:13:22;;;;;;;14.20;12.80;;;;;;;;;;6254031;28;20049;-75
2020/12/24 17:16:23;;;;;;;15.50;13.40;;;;;;;;;;6256874;28;20044;-75
2020/12/24 17:19:25;;;;;;;15.48;13.18;;;;;;;;;;6251195;28;20068;-74
2020/12/24 17:22:26;;;;;;;15.95;13.38;;;;;;;;;;6247383;28;20045;-75
2020/12/24 17:25:27;;;;;;;16.13;13.70;;;;;;;;;;6247000;28;20113;-74
2020/12/24 17:28:28;;;;;;;15.80;14.05;;;;;;;;;;6245112;28;20053;-74
2020/12/24 17:31:29;;;;;;;17.23;14.30;;;;;;;;;;6259888;28;20061;-74
2020/12/24 17:34:30;;;;;;;18.50;14.38;;;;;;;;;;6254744;28;20162;-74
2020/12/24 17:37:32;;;;;;;18.25;15.30;;;;;;;;;;6253524;28;20362;-74
2020/12/24 17:40:35;;;;;;;17.55;15.27;;;;;;;;;;6247813;28;20049;-74